Terminal Aerodrome Forecast
Issued by NWS

Home | Current Version | Previous Version | Text Only | Print | Product List | Glossary On
Versions: 1 2 3 4 5 6 7 8 9 10 11 12 13
000
FTUS43 KFGF 111300 CCA
TAFTVF
TAF COR
KTVF 111324Z 1112/1212 18004KT P6SM SCT250
     FM111500 28008KT P6SM SCT250
     FM120100 29007KT P6SM SCT250
      AMD NOT SKED=

USA.gov is the U.S. government's official web portal to all federal, state and local government web resources and services.